createdAt,value
2023-04-15T00:01:19.143Z,96155.19
2023-04-15T00:03:46.721Z,96152.53
2023-04-15T00:06:13.889Z,96145.59
2023-04-15T00:08:40.607Z,96143.94
2023-04-15T00:11:07.374Z,96143.94
2023-04-15T00:13:36.724Z,96151.88
2023-04-15T00:16:03.491Z,96152.72
2023-04-15T00:18:30.645Z,96145.78
2023-04-15T00:20:57.425Z,96142.13
2023-04-15T00:23:24.156Z,96138.66
2023-04-15T00:25:51.320Z,96142.94
2023-04-15T00:28:18.583Z,96133.38
2023-04-15T00:30:46.076Z,96133.53
2023-04-15T00:33:13.785Z,96130.06
2023-04-15T00:35:40.779Z,96123.78
2023-04-15T00:38:10.658Z,96127.44
2023-04-15T00:40:38.072Z,96120.31
2023-04-15T00:43:04.781Z,96115.38
2023-04-15T00:45:32.129Z,96115.56
2023-04-15T00:47:59.426Z,96112.25
2023-04-15T00:50:26.271Z,96106.97
2023-04-15T00:52:53.025Z,96096.38
2023-04-15T00:55:19.844Z,96094.75
2023-04-15T00:57:47.029Z,96104.31
2023-04-15T01:00:14.183Z,96105.31
2023-04-15T01:02:41.336Z,96104.31
2023-04-15T01:05:08.761Z,96099.03
2023-04-15T01:07:35.568Z,96105.31
2023-04-15T01:10:04.160Z,96106.31
2023-04-15T01:12:33.345Z,96107.34
2023-04-15T01:15:00.494Z,96114.44
2023-04-15T01:17:27.369Z,96113.44
2023-04-15T01:19:56.784Z,96103.88
2023-04-15T01:22:24.524Z,96100.41
2023-04-15T01:25:12.608Z,96104.88
2023-04-15T01:27:41.518Z,96104.03
2023-04-15T01:30:09.225Z,96096.28
2023-04-15T01:32:36.542Z,96091.81
2023-04-15T01:35:03.422Z,96087.34
2023-04-15T01:37:31.019Z,96088.34
2023-04-15T01:39:58.307Z,96091.81
2023-04-15T01:42:25.070Z,96091.81
2023-04-15T01:44:52.143Z,96083.88
2023-04-15T01:47:18.911Z,96092.81
2023-04-15T01:49:45.753Z,96086.88
2023-04-15T01:52:12.472Z,96090.50
2023-04-15T01:54:39.217Z,96100.75
2023-04-15T01:57:05.941Z,96100.91
2023-04-15T01:59:32.658Z,96100.91
2023-04-15T02:02:00.220Z,96108.03
2023-04-15T02:04:28.181Z,96105.38
2023-04-15T02:06:54.936Z,96113.47
2023-04-15T02:09:21.713Z,96116.94
2023-04-15T02:11:48.632Z,96115.94
2023-04-15T02:14:15.365Z,96109.19
2023-04-15T02:16:42.097Z,96104.88
2023-04-15T02:19:09.133Z,96108.69
2023-04-15T02:21:36.078Z,96110.53
2023-04-15T02:24:02.821Z,96118.28
2023-04-15T02:26:32.367Z,96113.97
2023-04-15T02:28:59.961Z,96118.09
2023-04-15T02:31:27.081Z,96114.16
2023-04-15T02:33:53.776Z,96121.25
2023-04-15T02:36:21.597Z,96116.63
2023-04-15T02:38:48.391Z,96115.81
2023-04-15T02:41:15.188Z,96117.63
2023-04-15T02:43:42.072Z,96118.63
2023-04-15T02:46:08.855Z,96118.63
2023-04-15T02:48:36.290Z,96111.03
2023-04-15T02:51:20.558Z,96104.91
2023-04-15T02:53:48.791Z,96104.91
2023-04-15T02:56:18.585Z,96101.78
2023-04-15T02:58:45.959Z,96108.06
2023-04-15T03:01:12.812Z,96105.44
2023-04-15T03:03:39.678Z,96110.22
2023-04-15T03:06:06.828Z,96108.75
2023-04-15T03:08:33.529Z,96103.47
2023-04-15T03:11:01.108Z,96101.97
2023-04-15T03:13:27.897Z,96108.44
2023-04-15T03:15:54.691Z,96103.78
2023-04-15T03:18:21.867Z,96104.47
2023-04-15T03:20:48.703Z,96108.09
2023-04-15T03:23:15.597Z,96105.44
2023-04-15T03:25:42.465Z,96107.94
2023-04-15T03:28:09.284Z,96107.78
2023-04-15T03:30:36.198Z,96109.59
2023-04-15T03:33:03.022Z,96110.41
2023-04-15T03:35:29.787Z,96110.25
2023-04-15T03:37:56.538Z,96116.53
2023-04-15T03:40:23.248Z,96102.50
2023-04-15T03:42:50.008Z,96096.38
2023-04-15T03:45:16.939Z,96108.94
2023-04-15T03:47:43.913Z,96115.22
2023-04-15T03:50:11.204Z,96110.94
2023-04-15T03:52:38.134Z,96110.28
2023-04-15T03:55:05.438Z,96111.75
2023-04-15T03:57:32.191Z,96109.78
2023-04-15T03:59:58.885Z,96107.63
2023-04-15T04:02:26.308Z,96109.28
2023-04-15T04:04:53.251Z,96111.28
2023-04-15T04:07:20.028Z,96108.28
2023-04-15T04:09:47.441Z,96114.06
2023-04-15T04:12:14.686Z,96108.63
2023-04-15T04:14:41.416Z,96104.16
2023-04-15T04:17:08.413Z,96110.28
2023-04-15T04:19:35.868Z,96111.28
2023-04-15T04:22:02.673Z,96110.28
2023-04-15T04:24:29.383Z,96115.06
2023-04-15T04:26:57.750Z,96118.53
2023-04-15T04:29:24.474Z,96118.19
2023-04-15T04:31:51.437Z,96114.72
2023-04-15T04:34:18.266Z,96112.25
2023-04-15T04:36:45.056Z,96119.34
2023-04-15T04:39:11.775Z,96122.00
2023-04-15T04:41:38.512Z,96117.22
2023-04-15T04:44:05.278Z,96123.16
2023-04-15T04:46:31.970Z,96132.22
2023-04-15T04:48:58.669Z,96126.28
2023-04-15T04:51:26.412Z,96129.91
2023-04-15T04:53:53.213Z,96131.75
2023-04-15T04:56:19.970Z,96132.06
2023-04-15T04:58:46.953Z,96126.97
2023-04-15T05:01:13.794Z,96126.78
2023-04-15T05:03:40.839Z,96132.06
2023-04-15T05:06:08.995Z,96130.09
2023-04-15T05:08:35.759Z,96126.63
2023-04-15T05:11:03.548Z,96127.44
2023-04-15T05:13:30.413Z,96132.06
2023-04-15T05:15:57.229Z,96127.63
2023-04-15T05:18:24.081Z,96132.91
2023-04-15T05:20:50.993Z,96131.25
2023-04-15T05:23:17.962Z,96129.59
2023-04-15T05:25:44.720Z,96138.34
2023-04-15T05:28:11.678Z,96132.91
2023-04-15T05:30:38.904Z,96134.56
2023-04-15T05:33:05.698Z,96140.16
2023-04-15T05:35:32.420Z,96139.66
2023-04-15T05:37:59.136Z,96128.94
2023-04-15T05:40:25.859Z,96134.88
2023-04-15T05:42:53.014Z,96141.50
2023-04-15T05:45:19.778Z,96130.09
2023-04-15T05:47:47.112Z,96148.59
2023-04-15T05:50:13.895Z,96138.84
2023-04-15T05:52:40.810Z,96135.53
2023-04-15T05:55:07.804Z,96141.16
2023-04-15T05:57:34.498Z,96136.53
2023-04-15T06:00:01.165Z,96141.81
2023-04-15T06:02:28.207Z,96144.13
2023-04-15T06:04:55.033Z,96136.03
2023-04-15T06:07:21.767Z,96140.50
2023-04-15T06:09:49.307Z,96143.78
2023-04-15T06:12:17.222Z,96140.81
2023-04-15T06:14:43.916Z,96137.53
2023-04-15T06:17:10.792Z,96134.88
2023-04-15T06:19:37.597Z,96143.63
2023-04-15T06:22:04.481Z,96145.78
2023-04-15T06:24:31.883Z,96145.13
2023-04-15T06:26:58.591Z,96146.75
2023-04-15T06:29:25.519Z,96143.97
2023-04-15T06:31:52.387Z,96150.88
2023-04-15T06:34:19.190Z,96151.72
2023-04-15T06:36:46.126Z,96147.25
2023-04-15T06:39:13.103Z,96135.69
2023-04-15T06:41:40.067Z,96142.47
2023-04-15T06:44:07.270Z,96143.28
2023-04-15T06:46:34.000Z,96148.41
2023-04-15T06:49:00.862Z,96147.41
2023-04-15T06:51:27.927Z,96150.72
2023-04-15T06:53:54.948Z,96147.41
2023-04-15T06:56:22.140Z,96145.44
2023-04-15T06:58:49.026Z,96147.41
2023-04-15T07:01:15.839Z,96135.84
2023-04-15T07:03:43.041Z,96141.13
2023-04-15T07:06:10.363Z,96142.97
2023-04-15T07:08:37.251Z,96140.31
2023-04-15T07:11:04.020Z,96147.41
2023-04-15T07:13:32.231Z,96159.63
2023-04-15T07:15:59.569Z,96147.91
2023-04-15T07:18:26.386Z,96154.19
2023-04-15T07:20:53.199Z,96156.16
2023-04-15T07:23:19.962Z,96152.38
2023-04-15T07:25:47.621Z,96150.72
2023-04-15T07:28:14.386Z,96152.38
2023-04-15T07:30:41.775Z,96143.44
2023-04-15T07:33:08.641Z,96147.09
2023-04-15T07:35:35.411Z,96138.50
2023-04-15T07:38:02.237Z,96145.44
2023-04-15T07:40:29.310Z,96144.44
2023-04-15T07:42:58.916Z,96146.25
2023-04-15T07:45:25.735Z,96142.97
2023-04-15T07:47:52.613Z,96143.78
2023-04-15T07:50:19.977Z,96140.97
2023-04-15T07:52:46.771Z,96140.16
2023-04-15T07:55:13.591Z,96141.63
2023-04-15T07:57:40.345Z,96145.09
2023-04-15T08:00:08.045Z,96145.91
2023-04-15T08:02:36.948Z,96145.09
2023-04-15T08:05:05.509Z,96150.38
2023-04-15T08:07:32.800Z,96154.84
2023-04-15T08:09:59.545Z,96151.03
2023-04-15T08:12:26.493Z,96149.38
2023-04-15T08:14:53.572Z,96149.38
2023-04-15T08:17:20.868Z,96150.22
2023-04-15T08:19:48.690Z,96148.72
2023-04-15T08:22:18.532Z,96149.56
2023-04-15T08:25:55.533Z,96149.22
2023-04-15T08:28:20.719Z,96151.03
2023-04-15T08:30:47.537Z,96154.34
2023-04-15T08:33:14.278Z,96157.97
2023-04-15T08:35:41.056Z,96156.81
2023-04-15T08:38:07.921Z,96162.91
2023-04-15T08:40:41.878Z,96161.94
2023-04-15T08:43:12.910Z,96167.88
2023-04-15T08:45:40.520Z,96159.94
2023-04-15T08:48:10.018Z,96161.75
2023-04-15T08:50:36.878Z,96169.34
2023-04-15T08:53:04.018Z,96169.84
2023-04-15T08:55:36.480Z,96165.88
2023-04-15T08:58:03.541Z,96168.66
2023-04-15T09:00:31.300Z,96168.50
2023-04-15T09:02:59.603Z,96168.66
2023-04-15T09:05:26.796Z,96171.94
2023-04-15T09:07:53.732Z,96171.94
2023-04-15T09:10:20.467Z,96173.44
2023-04-15T09:12:47.407Z,96171.59
2023-04-15T09:15:15.746Z,96171.13
2023-04-15T09:17:44.475Z,96178.06
2023-04-15T09:20:16.116Z,96169.47
2023-04-15T09:22:47.274Z,96181.00
2023-04-15T09:25:22.868Z,96168.59
2023-04-15T09:27:50.761Z,96174.53
2023-04-15T09:30:17.816Z,96163.63
2023-04-15T09:33:08.980Z,96166.91
2023-04-15T09:35:36.959Z,96176.69
2023-04-15T09:38:09.017Z,96163.63
2023-04-15T09:40:36.157Z,96167.75
2023-04-15T09:43:05.462Z,96169.72
2023-04-15T09:45:34.360Z,96176.84
2023-04-15T09:48:17.570Z,96176.19
2023-04-15T09:50:45.196Z,96171.91
2023-04-15T09:53:12.624Z,96178.19
2023-04-15T09:55:39.353Z,96181.81
2023-04-15T09:58:17.650Z,96177.34
2023-04-15T10:00:44.425Z,96173.06
2023-04-15T10:03:12.098Z,96180.81
2023-04-15T10:05:39.755Z,96179.66
2023-04-15T10:08:06.908Z,96174.53
2023-04-15T10:10:34.738Z,96176.19
2023-04-15T10:13:02.928Z,96174.53
2023-04-15T10:15:30.774Z,96176.19
2023-04-15T10:18:00.706Z,96181.66
2023-04-15T10:20:29.491Z,96185.13
2023-04-15T10:22:57.105Z,96179.81
2023-04-15T10:25:26.027Z,96180.16
2023-04-15T10:27:53.429Z,96176.91
2023-04-15T10:30:20.929Z,96193.56
2023-04-15T10:32:48.403Z,96181.97
2023-04-15T10:35:17.924Z,96191.56
2023-04-15T10:37:44.661Z,96188.25
2023-04-15T10:40:28.336Z,96187.28
2023-04-15T10:42:56.807Z,96194.88
2023-04-15T10:45:27.445Z,96191.22
2023-04-15T10:48:00.501Z,96189.25
2023-04-15T10:50:30.881Z,96198.16
2023-04-15T10:52:57.880Z,96201.63
2023-04-15T10:55:33.032Z,96198.81
2023-04-15T10:58:01.693Z,96203.28
2023-04-15T11:00:32.997Z,96196.34
2023-04-15T11:03:07.593Z,96194.53
2023-04-15T11:05:43.690Z,96199.81
2023-04-15T11:08:11.328Z,96197.34
2023-04-15T11:10:38.038Z,96211.38
2023-04-15T11:13:11.125Z,96208.91
2023-04-15T11:15:42.118Z,96214.19
2023-04-15T11:18:23.210Z,96213.03
2023-04-15T11:20:50.999Z,96217.00
2023-04-15T11:23:19.749Z,96223.75
2023-04-15T11:25:46.494Z,96220.78
2023-04-15T11:28:14.231Z,96222.25
2023-04-15T11:30:42.354Z,96222.44
2023-04-15T11:33:12.354Z,96212.84
2023-04-15T11:35:41.515Z,96224.41
2023-04-15T11:38:16.849Z,96223.59
2023-04-15T11:40:46.710Z,96222.94
2023-04-15T11:43:16.306Z,96232.69
2023-04-15T11:45:49.128Z,96222.94
2023-04-15T11:48:16.120Z,96234.50
2023-04-15T11:50:42.970Z,96231.69
2023-04-15T11:53:12.403Z,96242.59
2023-04-15T11:55:43.537Z,96247.53
2023-04-15T11:58:20.733Z,96251.00
2023-04-15T12:01:01.160Z,96261.59
2023-04-15T12:03:36.603Z,96268.69
2023-04-15T12:06:22.723Z,96270.34
2023-04-15T12:08:55.805Z,96275.47
2023-04-15T12:11:31.602Z,96283.41
2023-04-15T12:14:03.320Z,96295.47
2023-04-15T12:16:30.786Z,96286.06
2023-04-15T12:18:59.647Z,96290.34
2023-04-15T12:21:29.369Z,96298.28
2023-04-15T12:23:58.114Z,96292.34
2023-04-15T12:26:33.701Z,96305.41
2023-04-15T12:29:11.784Z,96306.38
2023-04-15T12:31:48.784Z,96305.56
2023-04-15T12:34:16.086Z,96307.38
2023-04-15T12:36:43.728Z,96314.50
2023-04-15T12:39:10.711Z,96306.56
2023-04-15T12:41:37.491Z,96318.13
2023-04-15T12:44:04.563Z,96323.59
2023-04-15T12:46:31.609Z,96316.47
2023-04-15T12:48:58.695Z,96324.56
2023-04-15T12:51:27.989Z,96324.56
2023-04-15T12:53:54.814Z,96332.50
2023-04-15T12:56:21.545Z,96335.00
2023-04-15T12:58:48.269Z,96325.41
2023-04-15T13:01:15.228Z,96330.69
2023-04-15T13:03:42.255Z,96331.84
2023-04-15T13:06:09.108Z,96339.94
2023-04-15T13:08:38.544Z,96344.06
2023-04-15T13:11:07.518Z,96346.56
2023-04-15T13:13:34.447Z,96340.94
2023-04-15T13:16:01.185Z,96348.53
2023-04-15T13:18:28.095Z,96348.19
2023-04-15T13:20:55.609Z,96355.31
2023-04-15T13:23:22.377Z,96355.66
2023-04-15T13:25:49.154Z,96350.19
2023-04-15T13:28:15.944Z,96355.81
2023-04-15T13:30:44.263Z,96348.38
2023-04-15T13:33:11.538Z,96360.59
2023-04-15T13:35:38.456Z,96357.63
2023-04-15T13:38:05.156Z,96360.78
2023-04-15T13:40:31.874Z,96359.78
2023-04-15T13:42:58.854Z,96371.19
2023-04-15T13:45:26.124Z,96368.69
2023-04-15T13:47:53.403Z,96367.88
2023-04-15T13:50:20.240Z,96374.66
2023-04-15T13:52:47.657Z,96376.63
2023-04-15T13:55:20.409Z,96379.63
2023-04-15T13:57:48.114Z,96385.06
2023-04-15T14:00:15.768Z,96390.53
2023-04-15T14:02:42.699Z,96389.38
2023-04-15T14:05:10.660Z,96387.72
2023-04-15T14:07:37.574Z,96392.00
2023-04-15T14:10:04.886Z,96394.66
2023-04-15T14:12:32.211Z,96385.06
2023-04-15T14:14:58.970Z,96394.66
2023-04-15T14:17:25.695Z,96400.09
2023-04-15T14:19:52.429Z,96406.56
2023-04-15T14:22:19.237Z,96404.72
2023-04-15T14:24:46.433Z,96414.66
2023-04-15T14:27:13.221Z,96414.66
2023-04-15T14:29:39.977Z,96419.09
2023-04-15T14:32:12.269Z,96422.59
2023-04-15T14:34:40.271Z,96426.22
2023-04-15T14:37:07.315Z,96426.22
2023-04-15T14:39:34.161Z,96426.06
2023-04-15T14:42:01.578Z,96428.84
2023-04-15T14:44:28.826Z,96438.44
2023-04-15T14:46:56.259Z,96439.44
2023-04-15T14:49:23.893Z,96439.59
2023-04-15T14:51:50.885Z,96446.53
2023-04-15T14:54:17.659Z,96441.41
2023-04-15T14:56:44.430Z,96439.75
2023-04-15T14:59:11.154Z,96448.69
2023-04-15T15:01:38.079Z,96443.25
2023-04-15T15:04:05.112Z,96452.97
2023-04-15T15:06:31.942Z,96457.28
2023-04-15T15:08:58.713Z,96459.09
2023-04-15T15:11:25.809Z,96453.97
2023-04-15T15:13:52.652Z,96463.56
2023-04-15T15:16:19.403Z,96459.44
2023-04-15T15:18:46.422Z,96466.38
2023-04-15T15:21:13.315Z,96462.06
2023-04-15T15:23:39.998Z,96471.81
2023-04-15T15:26:06.974Z,96476.13
2023-04-15T15:28:34.726Z,96474.47
2023-04-15T15:31:01.523Z,96482.56
2023-04-15T15:33:30.087Z,96482.56
2023-04-15T15:35:58.208Z,96485.19
2023-04-15T15:38:25.091Z,96488.66
2023-04-15T15:40:52.383Z,96488.88
2023-04-15T15:43:19.107Z,96493.13
2023-04-15T15:45:45.959Z,96495.78
2023-04-15T15:48:12.909Z,96487.38
2023-04-15T15:50:43.018Z,96499.59
2023-04-15T15:53:11.754Z,96501.41
2023-04-15T15:55:38.677Z,96507.38
2023-04-15T15:58:05.450Z,96511.84
2023-04-15T16:00:32.316Z,96515.47
2023-04-15T16:05:28.784Z,96524.22
2023-04-15T16:07:55.541Z,96527.84
2023-04-15T16:10:22.275Z,96524.53
2023-04-15T16:12:49.000Z,96535.28
2023-04-15T16:15:15.941Z,96532.63
2023-04-15T16:17:42.788Z,96538.09
2023-04-15T16:20:09.898Z,96536.25
2023-04-15T16:22:36.909Z,96542.38
2023-04-15T16:25:03.956Z,96551.13
2023-04-15T16:27:30.738Z,96545.19
2023-04-15T16:29:57.584Z,96548.50
2023-04-15T16:32:24.363Z,96550.16
2023-04-15T16:34:52.731Z,96555.59
2023-04-15T16:37:21.039Z,96564.50
2023-04-15T16:39:48.123Z,96571.63
2023-04-15T16:42:14.920Z,96569.97
2023-04-15T16:44:41.830Z,96575.09
2023-04-15T16:47:11.299Z,96577.75
2023-04-15T16:49:38.503Z,96580.38
2023-04-15T16:52:05.325Z,96583.19
2023-04-15T16:54:33.717Z,96589.13
2023-04-15T16:57:02.774Z,96591.13
2023-04-15T16:59:29.506Z,96588.63
2023-04-15T17:01:56.519Z,96588.63
2023-04-15T17:04:23.498Z,96586.81
2023-04-15T17:06:50.462Z,96598.38
2023-04-15T17:09:17.476Z,96596.72
2023-04-15T17:11:45.737Z,96590.59
2023-04-15T17:14:12.617Z,96603.66
2023-04-15T17:16:40.581Z,96604.66
2023-04-15T17:19:07.303Z,96605.63
2023-04-15T17:21:34.942Z,96611.06
2023-04-15T17:24:01.867Z,96615.53
2023-04-15T17:26:29.066Z,96618.19
2023-04-15T17:28:55.748Z,96613.88
2023-04-15T17:31:22.857Z,96629.91
2023-04-15T17:33:55.446Z,96627.09
2023-04-15T17:36:29.792Z,96636.00
2023-04-15T17:38:56.687Z,96632.84
2023-04-15T17:41:23.585Z,96632.19
2023-04-15T17:43:50.663Z,96629.38
2023-04-15T17:46:19.403Z,96626.38
2023-04-15T17:48:46.791Z,96638.28
2023-04-15T17:51:13.772Z,96633.16
2023-04-15T17:53:40.436Z,96642.91
2023-04-15T17:56:07.175Z,96644.06
2023-04-15T17:58:39.416Z,96638.75
2023-04-15T18:01:06.905Z,96650.16
2023-04-15T18:03:35.454Z,96659.06
2023-04-15T18:06:02.440Z,96659.75
2023-04-15T18:08:29.269Z,96666.03
2023-04-15T18:10:56.582Z,96655.59
2023-04-15T18:13:23.300Z,96669.66
2023-04-15T18:15:51.514Z,96670.47
2023-04-15T18:18:18.372Z,96676.91
2023-04-15T18:20:45.088Z,96673.44
2023-04-15T18:23:11.932Z,96678.72
2023-04-15T18:25:38.667Z,96686.78
2023-04-15T18:28:06.046Z,96689.28
2023-04-15T18:30:32.765Z,96681.88
2023-04-15T18:32:59.606Z,96689.81
2023-04-15T18:35:26.484Z,96705.16
2023-04-15T18:37:59.233Z,96694.56
2023-04-15T18:40:26.053Z,96700.69
2023-04-15T18:42:53.157Z,96702.81
2023-04-15T18:45:19.887Z,96700.53
2023-04-15T18:47:46.619Z,96712.25
2023-04-15T18:50:13.463Z,96713.75
2023-04-15T18:52:40.253Z,96720.03
2023-04-15T18:55:07.639Z,96728.78
2023-04-15T18:57:35.793Z,96732.41
2023-04-15T19:00:04.622Z,96734.22
2023-04-15T19:02:31.779Z,96738.66
2023-04-15T19:04:58.644Z,96744.63
2023-04-15T19:07:25.591Z,96744.63
2023-04-15T19:09:53.437Z,96748.09
2023-04-15T19:12:20.220Z,96756.88
2023-04-15T19:14:47.073Z,96754.38
2023-04-15T19:17:13.996Z,96753.53
2023-04-15T19:19:40.861Z,96765.78
2023-04-15T19:22:08.986Z,96757.84
2023-04-15T19:24:36.769Z,96763.13
2023-04-15T19:27:03.554Z,96769.41
2023-04-15T19:29:30.254Z,96763.97
2023-04-15T19:31:57.344Z,96775.53
2023-04-15T19:34:25.232Z,96773.69
2023-04-15T19:36:52.015Z,96776.34
2023-04-15T19:39:18.976Z,96784.28
2023-04-15T19:41:46.077Z,96785.94
2023-04-15T19:44:13.797Z,96780.81
2023-04-15T19:46:42.139Z,96789.72
2023-04-15T19:49:08.852Z,96792.22
2023-04-15T19:51:35.633Z,96786.91
2023-04-15T19:54:02.483Z,96791.22
2023-04-15T19:56:30.397Z,96780.66
2023-04-15T19:58:59.895Z,96785.09
2023-04-15T20:01:27.670Z,96793.34
2023-04-15T20:03:54.873Z,96796.66
2023-04-15T20:06:22.134Z,96798.63
2023-04-15T20:08:48.864Z,96794.31
2023-04-15T20:11:15.854Z,96809.88
2023-04-15T20:13:42.654Z,96809.03
2023-04-15T20:16:09.685Z,96809.03
2023-04-15T20:18:36.569Z,96815.31
2023-04-15T20:21:03.341Z,96810.84
2023-04-15T20:23:30.144Z,96810.84
2023-04-15T20:25:56.867Z,96816.28
2023-04-15T20:28:26.311Z,96814.94
2023-04-15T20:30:53.956Z,96815.47
2023-04-15T20:33:22.567Z,96812.00
2023-04-15T20:35:49.410Z,96818.25
2023-04-15T20:38:16.659Z,96808.50
2023-04-15T20:40:43.813Z,96817.28
2023-04-15T20:43:10.575Z,96824.22
2023-04-15T20:45:37.529Z,96827.47
2023-04-15T20:48:04.848Z,96828.16
2023-04-15T20:50:31.988Z,96830.78
2023-04-15T20:52:58.746Z,96831.91
2023-04-15T20:55:25.796Z,96824.53
2023-04-15T20:57:52.645Z,96839.56
2023-04-15T21:00:19.385Z,96838.88
2023-04-15T21:02:46.221Z,96840.00
2023-04-15T21:05:13.120Z,96838.34
2023-04-15T21:07:41.136Z,96833.06
2023-04-15T21:10:08.103Z,96837.34
2023-04-15T21:12:34.833Z,96837.06
2023-04-15T21:15:01.950Z,96840.69
2023-04-15T21:17:28.724Z,96841.81
2023-04-15T21:19:55.532Z,96847.63
2023-04-15T21:22:22.284Z,96854.72
2023-04-15T21:24:49.035Z,96854.72
2023-04-15T21:27:15.989Z,96860.16
2023-04-15T21:29:42.720Z,96862.81
2023-04-15T21:32:09.515Z,96867.09
2023-04-15T21:34:36.309Z,96861.66
2023-04-15T21:37:03.268Z,96867.09
2023-04-15T21:39:30.045Z,96878.50
2023-04-15T21:41:58.086Z,96879.50
2023-04-15T21:44:25.112Z,96878.50
2023-04-15T21:46:52.152Z,96877.69
2023-04-15T21:49:20.466Z,96885.44
2023-04-15T21:51:48.141Z,96883.09
2023-04-15T21:54:14.917Z,96887.41
2023-04-15T21:56:42.668Z,96885.44
2023-04-15T21:59:09.490Z,96889.59
2023-04-15T22:01:36.413Z,96888.78
2023-04-15T22:04:03.511Z,96902.00
2023-04-15T22:06:30.330Z,96893.22
2023-04-15T22:08:57.981Z,96895.72
2023-04-15T22:11:29.716Z,96908.09
2023-04-15T22:13:57.672Z,96906.28
2023-04-15T22:16:28.553Z,96905.47
2023-04-15T22:18:55.878Z,96920.19
2023-04-15T22:21:23.093Z,96915.88
2023-04-15T22:23:50.074Z,96914.06
2023-04-15T22:26:16.949Z,96905.47
2023-04-15T22:28:43.673Z,96910.75
2023-04-15T22:31:10.718Z,96913.25
2023-04-15T22:33:37.574Z,96910.75
2023-04-15T22:36:04.426Z,96914.38
2023-04-15T22:38:31.288Z,96921.47
2023-04-15T22:40:58.575Z,96923.28
2023-04-15T22:43:26.104Z,96933.84
2023-04-15T22:45:55.785Z,96926.75
2023-04-15T22:48:22.894Z,96921.47
2023-04-15T22:50:50.158Z,96935.66
2023-04-15T22:53:17.989Z,96936.34
2023-04-15T22:55:46.738Z,96939.97
2023-04-15T22:58:13.928Z,96939.00
2023-04-15T23:00:40.785Z,96939.81
2023-04-15T23:03:07.632Z,96939.97
2023-04-15T23:05:34.717Z,96943.44
2023-04-15T23:08:01.615Z,96945.25
2023-04-15T23:10:28.774Z,96939.13
2023-04-15T23:12:55.486Z,96942.63
2023-04-15T23:15:22.513Z,96946.22
2023-04-15T23:17:49.366Z,96948.72
2023-04-15T23:20:16.940Z,96950.84
2023-04-15T23:22:43.680Z,96944.44
2023-04-15T23:25:10.496Z,96946.09
2023-04-15T23:27:37.368Z,96955.00
2023-04-15T23:30:04.518Z,96951.97
2023-04-15T23:32:31.353Z,96954.59
2023-04-15T23:34:58.153Z,96944.72
2023-04-15T23:37:24.882Z,96960.56
2023-04-15T23:39:51.588Z,96963.91
2023-04-15T23:42:18.287Z,96963.22
2023-04-15T23:44:45.150Z,96957.25
2023-04-15T23:47:11.871Z,96964.88
2023-04-15T23:49:41.018Z,96954.59
2023-04-15T23:52:08.099Z,96963.06
2023-04-15T23:54:34.981Z,96962.09
2023-04-15T23:57:04.683Z,96960.28
2023-04-15T23:59:31.759Z,96962.25
